sensor_id;sensor_type;location;lat;lon;timestamp;temperature;humidity
16643;DHT22;8435;52.184;5.406;2023-02-28T00:01:09;5.60;97.40
16643;DHT22;8435;52.184;5.406;2023-02-28T00:03:38;5.60;97.40
16643;DHT22;8435;52.184;5.406;2023-02-28T00:06:07;5.60;97.40
16643;DHT22;8435;52.184;5.406;2023-02-28T00:08:35;5.60;97.50
16643;DHT22;8435;52.184;5.406;2023-02-28T00:11:04;5.60;97.60
16643;DHT22;8435;52.184;5.406;2023-02-28T00:13:34;5.60;97.60
16643;DHT22;8435;52.184;5.406;2023-02-28T00:16:06;5.70;97.60
16643;DHT22;8435;52.184;5.406;2023-02-28T00:18:33;5.70;97.70
16643;DHT22;8435;52.184;5.406;2023-02-28T00:21:00;5.70;97.70
16643;DHT22;8435;52.184;5.406;2023-02-28T00:23:28;5.70;97.70
16643;DHT22;8435;52.184;5.406;2023-02-28T00:25:55;5.70;97.70
16643;DHT22;8435;52.184;5.406;2023-02-28T00:28:23;5.70;97.60
16643;DHT22;8435;52.184;5.406;2023-02-28T00:30:50;5.70;97.70
16643;DHT22;8435;52.184;5.406;2023-02-28T00:33:17;5.70;97.70
16643;DHT22;8435;52.184;5.406;2023-02-28T00:35:44;5.80;97.70
16643;DHT22;8435;52.184;5.406;2023-02-28T00:38:12;5.80;97.70
16643;DHT22;8435;52.184;5.406;2023-02-28T00:40:39;5.80;97.70
16643;DHT22;8435;52.184;5.406;2023-02-28T00:43:08;5.80;97.80
16643;DHT22;8435;52.184;5.406;2023-02-28T00:45:36;5.80;97.80
16643;DHT22;8435;52.184;5.406;2023-02-28T00:48:06;5.80;97.80
16643;DHT22;8435;52.184;5.406;2023-02-28T00:50:33;5.80;97.70
16643;DHT22;8435;52.184;5.406;2023-02-28T00:53:01;5.80;97.80
16643;DHT22;8435;52.184;5.406;2023-02-28T00:55:28;5.80;97.70
16643;DHT22;8435;52.184;5.406;2023-02-28T00:57:55;5.80;97.70
16643;DHT22;8435;52.184;5.406;2023-02-28T01:00:22;5.90;97.80
16643;DHT22;8435;52.184;5.406;2023-02-28T01:02:51;5.80;97.80
16643;DHT22;8435;52.184;5.406;2023-02-28T01:05:18;5.90;97.80
16643;DHT22;8435;52.184;5.406;2023-02-28T01:07:45;5.90;97.70
16643;DHT22;8435;52.184;5.406;2023-02-28T01:10:12;5.90;97.80
16643;DHT22;8435;52.184;5.406;2023-02-28T01:12:38;5.90;97.80
16643;DHT22;8435;52.184;5.406;2023-02-28T01:15:06;5.90;97.80
16643;DHT22;8435;52.184;5.406;2023-02-28T01:17:33;5.90;97.80
16643;DHT22;8435;52.184;5.406;2023-02-28T01:20:01;6.00;97.80
16643;DHT22;8435;52.184;5.406;2023-02-28T01:22:29;6.00;97.80
16643;DHT22;8435;52.184;5.406;2023-02-28T01:24:56;6.00;97.70
16643;DHT22;8435;52.184;5.406;2023-02-28T01:27:22;6.00;97.70
16643;DHT22;8435;52.184;5.406;2023-02-28T01:29:50;6.00;97.70
16643;DHT22;8435;52.184;5.406;2023-02-28T01:32:17;6.00;97.70
16643;DHT22;8435;52.184;5.406;2023-02-28T01:34:44;6.00;97.70
16643;DHT22;8435;52.184;5.406;2023-02-28T01:37:14;6.00;97.70
16643;DHT22;8435;52.184;5.406;2023-02-28T01:39:44;6.00;97.70
16643;DHT22;8435;52.184;5.406;2023-02-28T01:42:11;6.00;97.70
16643;DHT22;8435;52.184;5.406;2023-02-28T01:45:04;6.00;97.70
16643;DHT22;8435;52.184;5.406;2023-02-28T01:47:35;6.00;97.80
16643;DHT22;8435;52.184;5.406;2023-02-28T01:50:06;6.00;97.60
16643;DHT22;8435;52.184;5.406;2023-02-28T01:52:35;6.00;97.60
16643;DHT22;8435;52.184;5.406;2023-02-28T01:55:07;6.00;97.60
16643;DHT22;8435;52.184;5.406;2023-02-28T01:57:38;6.00;97.60
16643;DHT22;8435;52.184;5.406;2023-02-28T02:00:08;6.00;97.60
16643;DHT22;8435;52.184;5.406;2023-02-28T02:02:36;6.00;97.60
16643;DHT22;8435;52.184;5.406;2023-02-28T02:05:06;6.00;97.60
16643;DHT22;8435;52.184;5.406;2023-02-28T02:07:36;6.00;97.70
16643;DHT22;8435;52.184;5.406;2023-02-28T02:10:06;6.10;97.70
16643;DHT22;8435;52.184;5.406;2023-02-28T02:15:34;6.10;97.90
16643;DHT22;8435;52.184;5.406;2023-02-28T02:18:07;6.10;97.80
16643;DHT22;8435;52.184;5.406;2023-02-28T02:20:59;6.10;97.80
16643;DHT22;8435;52.184;5.406;2023-02-28T02:26:50;6.10;98.00
16643;DHT22;8435;52.184;5.406;2023-02-28T02:29:39;6.10;97.90
16643;DHT22;8435;52.184;5.406;2023-02-28T02:32:34;6.10;98.00
16643;DHT22;8435;52.184;5.406;2023-02-28T02:35:14;6.10;98.10
16643;DHT22;8435;52.184;5.406;2023-02-28T02:37:47;6.20;98.00
16643;DHT22;8435;52.184;5.406;2023-02-28T02:40:17;6.20;98.00
16643;DHT22;8435;52.184;5.406;2023-02-28T02:42:53;6.20;98.10
16643;DHT22;8435;52.184;5.406;2023-02-28T02:45:25;6.20;98.20
16643;DHT22;8435;52.184;5.406;2023-02-28T02:47:58;6.20;98.20
16643;DHT22;8435;52.184;5.406;2023-02-28T02:50:30;6.20;98.20
16643;DHT22;8435;52.184;5.406;2023-02-28T02:53:01;6.20;98.30
16643;DHT22;8435;52.184;5.406;2023-02-28T02:55:31;6.20;98.20
16643;DHT22;8435;52.184;5.406;2023-02-28T02:58:03;6.20;98.30
16643;DHT22;8435;52.184;5.406;2023-02-28T03:00:34;6.20;98.30
16643;DHT22;8435;52.184;5.406;2023-02-28T03:03:02;6.20;98.40
16643;DHT22;8435;52.184;5.406;2023-02-28T03:05:35;6.20;98.40
16643;DHT22;8435;52.184;5.406;2023-02-28T03:08:06;6.20;98.50
16643;DHT22;8435;52.184;5.406;2023-02-28T03:10:36;6.20;98.40
16643;DHT22;8435;52.184;5.406;2023-02-28T03:13:38;6.10;98.50
16643;DHT22;8435;52.184;5.406;2023-02-28T03:16:31;6.20;98.70
16643;DHT22;8435;52.184;5.406;2023-02-28T03:19:11;6.20;98.90
16643;DHT22;8435;52.184;5.406;2023-02-28T03:21:46;6.20;98.60
16643;DHT22;8435;52.184;5.406;2023-02-28T03:24:22;6.20;98.60
16643;DHT22;8435;52.184;5.406;2023-02-28T03:26:55;6.20;98.60
16643;DHT22;8435;52.184;5.406;2023-02-28T03:29:31;6.20;98.60
16643;DHT22;8435;52.184;5.406;2023-02-28T03:32:03;6.20;98.60
16643;DHT22;8435;52.184;5.406;2023-02-28T03:34:33;6.20;98.60
16643;DHT22;8435;52.184;5.406;2023-02-28T03:37:05;6.20;98.60
16643;DHT22;8435;52.184;5.406;2023-02-28T03:39:36;6.20;98.60
16643;DHT22;8435;52.184;5.406;2023-02-28T03:42:08;6.20;98.50
16643;DHT22;8435;52.184;5.406;2023-02-28T03:44:40;6.20;98.50
16643;DHT22;8435;52.184;5.406;2023-02-28T03:47:10;6.20;98.50
16643;DHT22;8435;52.184;5.406;2023-02-28T03:49:42;6.30;98.50
16643;DHT22;8435;52.184;5.406;2023-02-28T03:52:11;6.30;98.50
16643;DHT22;8435;52.184;5.406;2023-02-28T03:54:41;6.20;98.50
16643;DHT22;8435;52.184;5.406;2023-02-28T03:57:15;6.20;98.50
16643;DHT22;8435;52.184;5.406;2023-02-28T03:59:47;6.20;98.40
16643;DHT22;8435;52.184;5.406;2023-02-28T04:02:16;6.20;98.40
16643;DHT22;8435;52.184;5.406;2023-02-28T04:04:44;6.20;98.40
16643;DHT22;8435;52.184;5.406;2023-02-28T04:07:15;6.30;98.50
16643;DHT22;8435;52.184;5.406;2023-02-28T04:09:42;6.20;98.40
16643;DHT22;8435;52.184;5.406;2023-02-28T04:12:09;6.20;98.30
16643;DHT22;8435;52.184;5.406;2023-02-28T04:14:36;6.20;98.30
16643;DHT22;8435;52.184;5.406;2023-02-28T04:17:03;6.20;98.60
16643;DHT22;8435;52.184;5.406;2023-02-28T04:19:30;6.20;98.30
16643;DHT22;8435;52.184;5.406;2023-02-28T04:21:56;6.20;98.30
16643;DHT22;8435;52.184;5.406;2023-02-28T04:24:26;6.20;98.20
16643;DHT22;8435;52.184;5.406;2023-02-28T04:26:55;6.20;98.20
16643;DHT22;8435;52.184;5.406;2023-02-28T04:29:24;6.10;98.20
16643;DHT22;8435;52.184;5.406;2023-02-28T04:31:51;6.10;98.10
16643;DHT22;8435;52.184;5.406;2023-02-28T04:34:19;6.10;98.10
16643;DHT22;8435;52.184;5.406;2023-02-28T04:36:46;6.10;98.00
16643;DHT22;8435;52.184;5.406;2023-02-28T04:39:14;6.10;97.80
16643;DHT22;8435;52.184;5.406;2023-02-28T04:41:45;6.10;97.70
16643;DHT22;8435;52.184;5.406;2023-02-28T04:44:11;6.10;97.40
16643;DHT22;8435;52.184;5.406;2023-02-28T04:46:38;6.10;97.20
16643;DHT22;8435;52.184;5.406;2023-02-28T04:49:05;6.00;97.10
16643;DHT22;8435;52.184;5.406;2023-02-28T04:51:32;6.00;96.90
16643;DHT22;8435;52.184;5.406;2023-02-28T04:53:59;6.00;96.70
16643;DHT22;8435;52.184;5.406;2023-02-28T04:56:25;6.00;96.60
16643;DHT22;8435;52.184;5.406;2023-02-28T04:58:55;5.90;96.40
16643;DHT22;8435;52.184;5.406;2023-02-28T05:01:24;5.90;96.30
16643;DHT22;8435;52.184;5.406;2023-02-28T05:03:53;5.90;96.20
16643;DHT22;8435;52.184;5.406;2023-02-28T05:06:21;5.80;96.00
16643;DHT22;8435;52.184;5.406;2023-02-28T05:08:49;5.80;96.00
16643;DHT22;8435;52.184;5.406;2023-02-28T05:11:19;5.80;96.00
16643;DHT22;8435;52.184;5.406;2023-02-28T05:13:47;5.80;95.90
16643;DHT22;8435;52.184;5.406;2023-02-28T05:16:19;5.70;96.10
16643;DHT22;8435;52.184;5.406;2023-02-28T05:18:46;5.70;95.80
16643;DHT22;8435;52.184;5.406;2023-02-28T05:21:27;5.60;95.80
16643;DHT22;8435;52.184;5.406;2023-02-28T05:23:55;5.60;95.80
16643;DHT22;8435;52.184;5.406;2023-02-28T05:26:22;5.60;96.00
16643;DHT22;8435;52.184;5.406;2023-02-28T05:28:49;5.60;96.20
16643;DHT22;8435;52.184;5.406;2023-02-28T05:31:16;5.50;96.30
16643;DHT22;8435;52.184;5.406;2023-02-28T05:33:44;5.50;96.60
16643;DHT22;8435;52.184;5.406;2023-02-28T05:36:11;5.40;96.70
16643;DHT22;8435;52.184;5.406;2023-02-28T05:38:38;5.40;96.80
16643;DHT22;8435;52.184;5.406;2023-02-28T05:41:06;5.40;97.00
16643;DHT22;8435;52.184;5.406;2023-02-28T05:43:33;5.30;97.20
16643;DHT22;8435;52.184;5.406;2023-02-28T05:46:03;5.30;97.30
16643;DHT22;8435;52.184;5.406;2023-02-28T05:48:30;5.20;97.40
16643;DHT22;8435;52.184;5.406;2023-02-28T05:51:02;5.20;97.50
16643;DHT22;8435;52.184;5.406;2023-02-28T05:53:29;5.10;97.60
16643;DHT22;8435;52.184;5.406;2023-02-28T05:55:56;5.10;97.70
16643;DHT22;8435;52.184;5.406;2023-02-28T05:58:23;5.10;97.90
16643;DHT22;8435;52.184;5.406;2023-02-28T06:00:54;5.00;98.00
16643;DHT22;8435;52.184;5.406;2023-02-28T06:03:21;5.00;98.10
16643;DHT22;8435;52.184;5.406;2023-02-28T06:05:48;4.90;98.30
16643;DHT22;8435;52.184;5.406;2023-02-28T06:08:17;4.90;98.40
16643;DHT22;8435;52.184;5.406;2023-02-28T06:10:44;4.90;98.50
16643;DHT22;8435;52.184;5.406;2023-02-28T06:13:11;4.80;98.60
16643;DHT22;8435;52.184;5.406;2023-02-28T06:15:38;4.80;98.60
16643;DHT22;8435;52.184;5.406;2023-02-28T06:18:05;4.80;98.70
16643;DHT22;8435;52.184;5.406;2023-02-28T06:20:34;4.80;98.80
16643;DHT22;8435;52.184;5.406;2023-02-28T06:23:01;4.80;98.90
16643;DHT22;8435;52.184;5.406;2023-02-28T06:25:32;4.80;99.00
16643;DHT22;8435;52.184;5.406;2023-02-28T06:27:59;4.80;99.20
16643;DHT22;8435;52.184;5.406;2023-02-28T06:30:28;4.80;99.20
16643;DHT22;8435;52.184;5.406;2023-02-28T06:32:56;4.80;99.30
16643;DHT22;8435;52.184;5.406;2023-02-28T06:35:23;4.80;99.40
16643;DHT22;8435;52.184;5.406;2023-02-28T06:37:50;4.80;99.40
16643;DHT22;8435;52.184;5.406;2023-02-28T06:40:16;4.80;99.80
16643;DHT22;8435;52.184;5.406;2023-02-28T06:42:45;4.80;99.60
16643;DHT22;8435;52.184;5.406;2023-02-28T06:45:12;4.80;99.70
16643;DHT22;8435;52.184;5.406;2023-02-28T06:47:40;4.80;99.70
16643;DHT22;8435;52.184;5.406;2023-02-28T06:50:09;4.80;99.80
16643;DHT22;8435;52.184;5.406;2023-02-28T06:52:36;4.90;99.80
16643;DHT22;8435;52.184;5.406;2023-02-28T06:55:05;4.90;99.80
16643;DHT22;8435;52.184;5.406;2023-02-28T06:57:34;4.90;99.80
16643;DHT22;8435;52.184;5.406;2023-02-28T07:00:05;4.90;99.80
16643;DHT22;8435;52.184;5.406;2023-02-28T07:02:33;4.90;99.90
16643;DHT22;8435;52.184;5.406;2023-02-28T07:05:00;4.90;99.90
16643;DHT22;8435;52.184;5.406;2023-02-28T07:07:29;4.90;99.90
16643;DHT22;8435;52.184;5.406;2023-02-28T07:09:56;5.00;99.90
16643;DHT22;8435;52.184;5.406;2023-02-28T07:12:23;5.00;99.90
16643;DHT22;8435;52.184;5.406;2023-02-28T07:14:52;5.00;99.90
16643;DHT22;8435;52.184;5.406;2023-02-28T07:17:21;5.00;99.90
16643;DHT22;8435;52.184;5.406;2023-02-28T07:19:49;5.10;99.90
16643;DHT22;8435;52.184;5.406;2023-02-28T07:22:16;5.10;99.90
16643;DHT22;8435;52.184;5.406;2023-02-28T07:24:43;5.10;99.90
16643;DHT22;8435;52.184;5.406;2023-02-28T07:27:09;5.10;99.90
16643;DHT22;8435;52.184;5.406;2023-02-28T07:29:52;5.20;99.90
16643;DHT22;8435;52.184;5.406;2023-02-28T07:32:21;5.20;99.90
16643;DHT22;8435;52.184;5.406;2023-02-28T07:34:48;5.20;99.90
16643;DHT22;8435;52.184;5.406;2023-02-28T07:37:15;5.30;99.90
16643;DHT22;8435;52.184;5.406;2023-02-28T07:39:42;5.30;99.90
16643;DHT22;8435;52.184;5.406;2023-02-28T07:42:09;5.30;99.90
16643;DHT22;8435;52.184;5.406;2023-02-28T07:44:37;5.40;99.90
16643;DHT22;8435;52.184;5.406;2023-02-28T07:47:06;5.40;99.90
16643;DHT22;8435;52.184;5.406;2023-02-28T07:49:35;5.40;99.90
16643;DHT22;8435;52.184;5.406;2023-02-28T07:52:02;5.30;99.90
16643;DHT22;8435;52.184;5.406;2023-02-28T07:54:30;5.40;99.90
16643;DHT22;8435;52.184;5.406;2023-02-28T07:56:57;5.40;99.90
16643;DHT22;8435;52.184;5.406;2023-02-28T07:59:24;5.40;99.90
16643;DHT22;8435;52.184;5.406;2023-02-28T08:01:51;5.40;99.90
16643;DHT22;8435;52.184;5.406;2023-02-28T08:04:18;5.40;99.90
16643;DHT22;8435;52.184;5.406;2023-02-28T08:06:50;5.40;99.90
16643;DHT22;8435;52.184;5.406;2023-02-28T08:09:18;5.50;99.90
16643;DHT22;8435;52.184;5.406;2023-02-28T08:11:45;5.50;99.90
16643;DHT22;8435;52.184;5.406;2023-02-28T08:14:11;5.50;99.90
16643;DHT22;8435;52.184;5.406;2023-02-28T08:16:39;5.50;99.90
16643;DHT22;8435;52.184;5.406;2023-02-28T08:19:05;5.50;99.90
16643;DHT22;8435;52.184;5.406;2023-02-28T08:21:32;5.50;99.90
16643;DHT22;8435;52.184;5.406;2023-02-28T08:24:00;5.60;99.90
16643;DHT22;8435;52.184;5.406;2023-02-28T08:26:29;5.50;99.90
16643;DHT22;8435;52.184;5.406;2023-02-28T08:28:55;5.60;99.90
16643;DHT22;8435;52.184;5.406;2023-02-28T08:31:22;5.60;99.90
16643;DHT22;8435;52.184;5.406;2023-02-28T08:33:49;5.60;99.90
16643;DHT22;8435;52.184;5.406;2023-02-28T08:36:18;5.60;99.90
16643;DHT22;8435;52.184;5.406;2023-02-28T08:38:45;5.70;99.90
16643;DHT22;8435;52.184;5.406;2023-02-28T08:41:13;5.70;99.90
16643;DHT22;8435;52.184;5.406;2023-02-28T08:43:45;5.70;99.90
16643;DHT22;8435;52.184;5.406;2023-02-28T08:46:13;5.70;99.90
16643;DHT22;8435;52.184;5.406;2023-02-28T08:48:40;5.80;99.90
16643;DHT22;8435;52.184;5.406;2023-02-28T08:51:08;5.80;99.90
16643;DHT22;8435;52.184;5.406;2023-02-28T08:53:35;5.90;99.90
16643;DHT22;8435;52.184;5.406;2023-02-28T08:56:04;5.90;99.80
16643;DHT22;8435;52.184;5.406;2023-02-28T08:58:33;6.00;99.60
16643;DHT22;8435;52.184;5.406;2023-02-28T09:01:06;6.00;99.40
16643;DHT22;8435;52.184;5.406;2023-02-28T09:03:33;6.10;99.30
16643;DHT22;8435;52.184;5.406;2023-02-28T09:06:00;6.10;99.20
16643;DHT22;8435;52.184;5.406;2023-02-28T09:08:29;6.20;99.10
16643;DHT22;8435;52.184;5.406;2023-02-28T09:10:57;6.20;98.90
16643;DHT22;8435;52.184;5.406;2023-02-28T09:13:25;6.20;98.80
16643;DHT22;8435;52.184;5.406;2023-02-28T09:15:54;6.20;98.90
16643;DHT22;8435;52.184;5.406;2023-02-28T09:18:21;6.30;98.80
16643;DHT22;8435;52.184;5.406;2023-02-28T09:20:47;6.30;98.70
16643;DHT22;8435;52.184;5.406;2023-02-28T09:23:16;6.40;98.60
16643;DHT22;8435;52.184;5.406;2023-02-28T09:25:46;6.40;98.20
16643;DHT22;8435;52.184;5.406;2023-02-28T09:28:13;6.50;97.70
16643;DHT22;8435;52.184;5.406;2023-02-28T09:30:42;6.60;97.50
16643;DHT22;8435;52.184;5.406;2023-02-28T09:33:13;6.70;97.40
16643;DHT22;8435;52.184;5.406;2023-02-28T09:35:42;6.80;96.90
16643;DHT22;8435;52.184;5.406;2023-02-28T09:38:10;6.90;96.50
16643;DHT22;8435;52.184;5.406;2023-02-28T09:40:48;7.10;96.80
16643;DHT22;8435;52.184;5.406;2023-02-28T09:43:16;7.20;96.20
16643;DHT22;8435;52.184;5.406;2023-02-28T09:45:49;7.40;95.80
16643;DHT22;8435;52.184;5.406;2023-02-28T09:48:23;7.50;95.50
16643;DHT22;8435;52.184;5.406;2023-02-28T09:50:55;7.60;94.60
16643;DHT22;8435;52.184;5.406;2023-02-28T09:53:27;7.70;92.30
16643;DHT22;8435;52.184;5.406;2023-02-28T09:56:01;7.70;92.00
16643;DHT22;8435;52.184;5.406;2023-02-28T09:58:33;7.60;92.30
16643;DHT22;8435;52.184;5.406;2023-02-28T10:01:08;7.60;90.90
16643;DHT22;8435;52.184;5.406;2023-02-28T10:03:40;7.60;91.60
16643;DHT22;8435;52.184;5.406;2023-02-28T10:06:14;7.60;91.40
16643;DHT22;8435;52.184;5.406;2023-02-28T10:08:47;7.60;91.60
16643;DHT22;8435;52.184;5.406;2023-02-28T10:11:21;7.60;92.10
16643;DHT22;8435;52.184;5.406;2023-02-28T10:13:54;7.70;91.70
16643;DHT22;8435;52.184;5.406;2023-02-28T10:16:30;7.70;92.10
16643;DHT22;8435;52.184;5.406;2023-02-28T10:19:04;7.80;91.90
16643;DHT22;8435;52.184;5.406;2023-02-28T10:21:37;7.90;91.30
16643;DHT22;8435;52.184;5.406;2023-02-28T10:24:21;8.00;91.40
16643;DHT22;8435;52.184;5.406;2023-02-28T10:26:52;8.10;91.00
16643;DHT22;8435;52.184;5.406;2023-02-28T10:29:22;8.20;92.00
16643;DHT22;8435;52.184;5.406;2023-02-28T10:31:49;8.30;92.10
16643;DHT22;8435;52.184;5.406;2023-02-28T10:34:17;8.40;91.70
16643;DHT22;8435;52.184;5.406;2023-02-28T10:36:44;8.40;90.20
16643;DHT22;8435;52.184;5.406;2023-02-28T10:39:34;8.50;90.30
16643;DHT22;8435;52.184;5.406;2023-02-28T10:42:01;8.50;87.00
16643;DHT22;8435;52.184;5.406;2023-02-28T10:44:28;8.50;90.00
16643;DHT22;8435;52.184;5.406;2023-02-28T10:46:55;8.40;90.50
16643;DHT22;8435;52.184;5.406;2023-02-28T10:49:26;8.40;86.90
16643;DHT22;8435;52.184;5.406;2023-02-28T10:51:56;8.40;86.00
16643;DHT22;8435;52.184;5.406;2023-02-28T10:54:27;8.40;87.00
16643;DHT22;8435;52.184;5.406;2023-02-28T10:57:07;8.40;86.90
16643;DHT22;8435;52.184;5.406;2023-02-28T10:59:34;8.30;85.60
16643;DHT22;8435;52.184;5.406;2023-02-28T11:02:01;8.30;86.40
16643;DHT22;8435;52.184;5.406;2023-02-28T11:04:35;8.30;86.10
16643;DHT22;8435;52.184;5.406;2023-02-28T11:07:10;8.30;84.50
16643;DHT22;8435;52.184;5.406;2023-02-28T11:09:46;8.30;86.10
16643;DHT22;8435;52.184;5.406;2023-02-28T11:12:22;8.30;86.50
16643;DHT22;8435;52.184;5.406;2023-02-28T11:14:52;8.30;84.20
16643;DHT22;8435;52.184;5.406;2023-02-28T11:17:21;8.30;83.50
16643;DHT22;8435;52.184;5.406;2023-02-28T11:19:55;8.30;83.50
16643;DHT22;8435;52.184;5.406;2023-02-28T11:22:25;8.30;82.30
16643;DHT22;8435;52.184;5.406;2023-02-28T11:24:56;8.30;81.40
16643;DHT22;8435;52.184;5.406;2023-02-28T11:27:45;8.30;79.20
16643;DHT22;8435;52.184;5.406;2023-02-28T11:30:28;8.30;77.00
16643;DHT22;8435;52.184;5.406;2023-02-28T11:32:55;8.30;79.60
16643;DHT22;8435;52.184;5.406;2023-02-28T11:35:27;8.30;80.70
16643;DHT22;8435;52.184;5.406;2023-02-28T11:37:55;8.30;82.10
16643;DHT22;8435;52.184;5.406;2023-02-28T11:40:28;8.20;79.80
16643;DHT22;8435;52.184;5.406;2023-02-28T11:43:12;8.20;79.60
16643;DHT22;8435;52.184;5.406;2023-02-28T11:45:49;8.20;79.90
16643;DHT22;8435;52.184;5.406;2023-02-28T11:48:25;8.30;77.10
16643;DHT22;8435;52.184;5.406;2023-02-28T11:51:08;8.20;79.50
16643;DHT22;8435;52.184;5.406;2023-02-28T11:53:59;8.30;75.40
16643;DHT22;8435;52.184;5.406;2023-02-28T11:56:32;8.30;78.30
16643;DHT22;8435;52.184;5.406;2023-02-28T11:59:21;8.30;80.30
16643;DHT22;8435;52.184;5.406;2023-02-28T12:02:05;8.30;76.70
16643;DHT22;8435;52.184;5.406;2023-02-28T12:04:38;8.30;76.90
16643;DHT22;8435;52.184;5.406;2023-02-28T12:07:16;8.30;78.80
16643;DHT22;8435;52.184;5.406;2023-02-28T12:09:52;8.50;78.20
16643;DHT22;8435;52.184;5.406;2023-02-28T12:12:34;8.40;79.80
16643;DHT22;8435;52.184;5.406;2023-02-28T12:15:27;8.40;79.80
16643;DHT22;8435;52.184;5.406;2023-02-28T12:18:08;8.40;78.20
16643;DHT22;8435;52.184;5.406;2023-02-28T12:20:44;8.50;78.30
16643;DHT22;8435;52.184;5.406;2023-02-28T12:23:30;8.50;75.30
16643;DHT22;8435;52.184;5.406;2023-02-28T12:26:09;8.50;73.70
16643;DHT22;8435;52.184;5.406;2023-02-28T12:28:43;8.50;75.00
16643;DHT22;8435;52.184;5.406;2023-02-28T12:31:18;8.50;73.60
16643;DHT22;8435;52.184;5.406;2023-02-28T12:33:50;8.60;76.40
16643;DHT22;8435;52.184;5.406;2023-02-28T12:36:19;8.60;77.10
16643;DHT22;8435;52.184;5.406;2023-02-28T12:38:53;8.60;73.20
16643;DHT22;8435;52.184;5.406;2023-02-28T12:41:27;8.60;75.10
16643;DHT22;8435;52.184;5.406;2023-02-28T12:44:00;8.60;75.40
16643;DHT22;8435;52.184;5.406;2023-02-28T12:46:32;8.60;76.30
16643;DHT22;8435;52.184;5.406;2023-02-28T12:49:05;8.60;75.50
16643;DHT22;8435;52.184;5.406;2023-02-28T12:51:34;8.60;75.20
16643;DHT22;8435;52.184;5.406;2023-02-28T12:54:12;8.60;73.00
16643;DHT22;8435;52.184;5.406;2023-02-28T12:56:45;8.60;74.70
16643;DHT22;8435;52.184;5.406;2023-02-28T12:59:20;8.60;73.90
16643;DHT22;8435;52.184;5.406;2023-02-28T13:04:57;8.60;73.70
16643;DHT22;8435;52.184;5.406;2023-02-28T13:10:24;8.70;74.50
16643;DHT22;8435;52.184;5.406;2023-02-28T13:12:53;8.70;72.00
16643;DHT22;8435;52.184;5.406;2023-02-28T13:15:24;8.70;74.70
16643;DHT22;8435;52.184;5.406;2023-02-28T13:17:56;8.70;72.80
16643;DHT22;8435;52.184;5.406;2023-02-28T13:20:25;8.70;70.90
16643;DHT22;8435;52.184;5.406;2023-02-28T13:22:54;8.70;72.00
16643;DHT22;8435;52.184;5.406;2023-02-28T13:25:54;8.80;74.10
16643;DHT22;8435;52.184;5.406;2023-02-28T13:34:34;8.80;70.90
16643;DHT22;8435;52.184;5.406;2023-02-28T13:37:37;8.80;70.40
16643;DHT22;8435;52.184;5.406;2023-02-28T13:40:29;8.80;72.50
16643;DHT22;8435;52.184;5.406;2023-02-28T13:43:08;8.80;70.90
16643;DHT22;8435;52.184;5.406;2023-02-28T13:45:36;8.90;71.00
16643;DHT22;8435;52.184;5.406;2023-02-28T13:48:15;8.90;73.20
16643;DHT22;8435;52.184;5.406;2023-02-28T13:50:43;8.90;72.50
16643;DHT22;8435;52.184;5.406;2023-02-28T13:53:35;8.90;73.20
16643;DHT22;8435;52.184;5.406;2023-02-28T13:56:22;8.90;69.60
16643;DHT22;8435;52.184;5.406;2023-02-28T13:58:57;8.90;70.00
16643;DHT22;8435;52.184;5.406;2023-02-28T14:01:43;8.90;70.20
16643;DHT22;8435;52.184;5.406;2023-02-28T14:04:54;8.90;70.00
16643;DHT22;8435;52.184;5.406;2023-02-28T14:07:30;8.90;71.30
16643;DHT22;8435;52.184;5.406;2023-02-28T14:10:02;8.90;69.10
16643;DHT22;8435;52.184;5.406;2023-02-28T14:12:57;8.90;71.30
16643;DHT22;8435;52.184;5.406;2023-02-28T14:18:31;9.00;70.50
16643;DHT22;8435;52.184;5.406;2023-02-28T14:21:03;9.00;70.30
16643;DHT22;8435;52.184;5.406;2023-02-28T14:26:44;9.00;71.40
16643;DHT22;8435;52.184;5.406;2023-02-28T14:29:33;9.00;71.60
16643;DHT22;8435;52.184;5.406;2023-02-28T14:32:10;9.00;70.00
16643;DHT22;8435;52.184;5.406;2023-02-28T14:34:44;9.10;69.00
16643;DHT22;8435;52.184;5.406;2023-02-28T14:37:18;9.10;68.60
16643;DHT22;8435;52.184;5.406;2023-02-28T14:39:46;9.10;68.10
16643;DHT22;8435;52.184;5.406;2023-02-28T14:42:28;9.10;69.60
16643;DHT22;8435;52.184;5.406;2023-02-28T14:44:55;9.10;69.80
16643;DHT22;8435;52.184;5.406;2023-02-28T14:47:26;9.10;71.00
16643;DHT22;8435;52.184;5.406;2023-02-28T14:49:54;9.10;70.70
16643;DHT22;8435;52.184;5.406;2023-02-28T14:52:23;9.10;69.60
16643;DHT22;8435;52.184;5.406;2023-02-28T14:54:53;9.10;68.40
16643;DHT22;8435;52.184;5.406;2023-02-28T14:57:23;9.10;67.30
16643;DHT22;8435;52.184;5.406;2023-02-28T14:59:58;9.10;67.70
16643;DHT22;8435;52.184;5.406;2023-02-28T15:02:30;9.10;68.30
16643;DHT22;8435;52.184;5.406;2023-02-28T15:04:59;9.20;69.80
16643;DHT22;8435;52.184;5.406;2023-02-28T15:07:27;9.10;67.60
16643;DHT22;8435;52.184;5.406;2023-02-28T15:10:13;9.20;69.30
16643;DHT22;8435;52.184;5.406;2023-02-28T15:12:48;9.20;69.20
16643;DHT22;8435;52.184;5.406;2023-02-28T15:15:16;9.20;69.20
16643;DHT22;8435;52.184;5.406;2023-02-28T15:17:49;9.20;69.60
16643;DHT22;8435;52.184;5.406;2023-02-28T15:20:17;9.20;69.40
16643;DHT22;8435;52.184;5.406;2023-02-28T15:22:49;9.20;70.60
16643;DHT22;8435;52.184;5.406;2023-02-28T15:25:19;9.20;68.60
16643;DHT22;8435;52.184;5.406;2023-02-28T15:27:49;9.20;69.60
16643;DHT22;8435;52.184;5.406;2023-02-28T15:30:18;9.20;69.30
16643;DHT22;8435;52.184;5.406;2023-02-28T15:33:02;9.20;69.00
16643;DHT22;8435;52.184;5.406;2023-02-28T15:35:32;9.20;67.90
16643;DHT22;8435;52.184;5.406;2023-02-28T15:38:02;9.30;68.70
16643;DHT22;8435;52.184;5.406;2023-02-28T15:40:33;9.20;67.90
16643;DHT22;8435;52.184;5.406;2023-02-28T15:43:05;9.20;67.30
16643;DHT22;8435;52.184;5.406;2023-02-28T15:45:34;9.20;68.00
16643;DHT22;8435;52.184;5.406;2023-02-28T15:48:05;9.20;68.00
16643;DHT22;8435;52.184;5.406;2023-02-28T15:50:34;9.20;67.40
16643;DHT22;8435;52.184;5.406;2023-02-28T15:53:12;9.10;66.60
16643;DHT22;8435;52.184;5.406;2023-02-28T15:55:39;9.10;67.50
16643;DHT22;8435;52.184;5.406;2023-02-28T15:58:10;9.10;67.40
16643;DHT22;8435;52.184;5.406;2023-02-28T16:00:38;9.10;67.30
16643;DHT22;8435;52.184;5.406;2023-02-28T16:03:25;9.10;68.70
16643;DHT22;8435;52.184;5.406;2023-02-28T16:06:32;9.10;67.90
16643;DHT22;8435;52.184;5.406;2023-02-28T16:09:02;9.00;69.50
16643;DHT22;8435;52.184;5.406;2023-02-28T16:11:28;9.00;67.50
16643;DHT22;8435;52.184;5.406;2023-02-28T16:13:56;9.00;68.40
16643;DHT22;8435;52.184;5.406;2023-02-28T16:16:28;9.00;68.30
16643;DHT22;8435;52.184;5.406;2023-02-28T16:18:56;8.90;68.30
16643;DHT22;8435;52.184;5.406;2023-02-28T16:21:25;8.90;67.30
16643;DHT22;8435;52.184;5.406;2023-02-28T16:23:52;8.90;67.50
16643;DHT22;8435;52.184;5.406;2023-02-28T16:26:21;8.90;68.40
16643;DHT22;8435;52.184;5.406;2023-02-28T16:28:49;8.90;67.70
16643;DHT22;8435;52.184;5.406;2023-02-28T16:31:16;8.80;68.50
16643;DHT22;8435;52.184;5.406;2023-02-28T16:33:46;8.80;69.40
16643;DHT22;8435;52.184;5.406;2023-02-28T16:36:16;8.80;69.80
16643;DHT22;8435;52.184;5.406;2023-02-28T16:38:43;8.80;68.60
16643;DHT22;8435;52.184;5.406;2023-02-28T16:41:13;8.70;69.40
16643;DHT22;8435;52.184;5.406;2023-02-28T16:43:45;8.70;70.00
16643;DHT22;8435;52.184;5.406;2023-02-28T16:46:13;8.70;69.00
16643;DHT22;8435;52.184;5.406;2023-02-28T16:48:40;8.70;70.20
16643;DHT22;8435;52.184;5.406;2023-02-28T16:51:12;8.60;70.70
16643;DHT22;8435;52.184;5.406;2023-02-28T16:53:40;8.60;69.70